This is the latest recevied weather packets stored in our database for station/object W5ALL-WX. If no packets are shown the sender has not sent any weather packets the latest 10 day(s).
| Time | Temp. | Humidity | Pressure | Rain* | Wind** | Luminosity | Snow |
|---|---|---|---|---|---|---|---|
| 1787873385 | 33.33° C | 18% | 1008.2 hPa | 0 mm | - | - | - |
| 1787873085 | 32.78° C | 18% | 1008.5 hPa | 0 mm | - | - | - |
| 1787872785 | 32.78° C | 19% | 1008.5 hPa | 0 mm | - | - | - |
| 1787872485 | 32.78° C | 19% | 1008.8 hPa | 0 mm | - | - | - |
| 1787872185 | 32.78° C | 18% | 1008.8 hPa | 0 mm | - | - | - |
| 1787871885 | 32.78° C | 18% | 1008.8 hPa | 0 mm | - | - | - |
| 1787871585 | 33.89° C | 18% | 1008.8 hPa | 0 mm | - | - | - |
| 1787871285 | 34.44° C | 15% | 1008.5 hPa | 0 mm | - | - | - |
| 1787870985 | 34.44° C | 15% | 1008.5 hPa | 0 mm | - | - | - |
| 1787870685 | 33.89° C | 15% | 1008.8 hPa | 0 mm | - | - | - |
| 1787870385 | 33.33° C | 18% | 1008.8 hPa | 0 mm | - | - | - |
| 1787870085 | 31.67° C | 22% | 1009.2 hPa | 0 mm | - | - | - |
| 1787869785 | 31.67° C | 23% | 1009.2 hPa | 0 mm | - | - | - |
| 1787869485 | 31.11° C | 26% | 1009.2 hPa | 0 mm | - | - | - |
| 1787869185 | 31.11° C | 27% | 1009.5 hPa | 0 mm | - | - | - |
| 1787868885 | 31.67° C | 24% | 1009.5 hPa | 0 mm | - | - | - |
| 1787868585 | 32.22° C | 19% | 1009.5 hPa | 0 mm | - | - | - |
| 1787868285 | 31.67° C | 20% | 1009.5 hPa | 0 mm | - | - | - |
| 1787867985 | 31.67° C | 19% | 1009.5 hPa | 0 mm | - | - | - |
| 1787867685 | 32.78° C | 19% | 1009.5 hPa | 0 mm | - | - | - |
| 1787867385 | 34.44° C | 18% | 1009.5 hPa | 0 mm | - | - | - |
| 1787867085 | 34.44° C | 18% | 1009.5 hPa | 0 mm | - | - | - |
| 1787866785 | 35° C | 18% | 1009.5 hPa | 0 mm | - | - | - |
| 1787866485 | 34.44° C | 18% | 1009.5 hPa | 0 mm | - | - | - |
| 1787866185 | 33.89° C | 18% | 1009.2 hPa | 0 mm | - | - | - |
* Rain latest hour (hover to see other rain measurements)
** Current wind speed in m/s (hover to see current wind gust speed)